Time;durP1;ratioP1;P1;durP2;ratioP2;P2;SDS_P1;SDS_P2;PMS_P1;PMS_P2;Temp;Humidity;BMP_temperature;BMP_pressure;BME280_temperature;BME280_humidity;BME280_pressure;Samples;Min_cycle;Max_cycle;Signal;HPM_P1;HPM_P2
2022/01/26 00:06:44;;;;;;;98.65;18.90;;;;;;;;;;5021502;28;20080;-66
2022/01/26 00:09:14;;;;;;;155.98;22.13;;;;;;;;;;5021284;28;20127;-66
2022/01/26 00:11:41;;;;;;;122.13;20.48;;;;;;;;;;5021471;28;20144;-67
2022/01/26 00:14:11;;;;;;;294.35;27.42;;;;;;;;;;5021588;28;20512;-66
2022/01/26 00:16:45;;;;;;;251.20;23.60;;;;;;;;;;5021507;28;20537;-66
2022/01/26 00:19:19;;;;;;;813.20;47.42;;;;;;;;;;5021657;28;20132;-66
2022/01/26 00:21:51;;;;;;;891.17;48.33;;;;;;;;;;5022068;28;20080;-66
2022/01/26 00:29:30;;;;;;;120.53;21.63;;;;;;;;;;5025811;28;20045;-66
2022/01/26 00:33:06;;;;;;;97.75;20.35;;;;;;;;;;5025584;28;20053;-66
2022/01/26 00:43:01;;;;;;;63.60;17.30;;;;;;;;;;5024070;28;20087;-66
2022/01/26 00:45:34;;;;;;;58.20;13.57;;;;;;;;;;5019704;28;20172;-66
2022/01/26 00:48:04;;;;;;;34.05;8.80;;;;;;;;;;5021264;28;20417;-66
2022/01/26 00:50:31;;;;;;;59.83;11.70;;;;;;;;;;5021573;28;20045;-66
2022/01/26 00:52:58;;;;;;;47.15;11.68;;;;;;;;;;5019353;28;20592;-66
2022/01/26 00:55:31;;;;;;;45.67;9.95;;;;;;;;;;5020200;28;20046;-66
2022/01/26 00:57:57;;;;;;;55.55;9.57;;;;;;;;;;5024452;28;20053;-66
2022/01/26 01:00:26;;;;;;;42.15;8.95;;;;;;;;;;5010472;28;20197;-66
2022/01/26 01:02:55;;;;;;;36.08;8.20;;;;;;;;;;5021112;28;20096;-67
2022/01/26 01:05:27;;;;;;;43.15;8.38;;;;;;;;;;5022318;28;20054;-67
2022/01/26 01:08:02;;;;;;;50.67;9.13;;;;;;;;;;5019561;28;20042;-66
2022/01/26 01:10:29;;;;;;;42.90;8.55;;;;;;;;;;5019501;28;20137;-66
2022/01/26 01:12:58;;;;;;;38.88;7.57;;;;;;;;;;5024186;28;20144;-66
2022/01/26 01:15:25;;;;;;;48.05;8.55;;;;;;;;;;5018134;28;20144;-66
2022/01/26 01:18:02;;;;;;;45.13;9.13;;;;;;;;;;5019698;28;20511;-66
2022/01/26 01:20:51;;;;;;;44.03;8.60;;;;;;;;;;5019860;28;20153;-66
2022/01/26 01:31:01;;;;;;;45.28;9.98;;;;;;;;;;5021801;28;20332;-66
2022/01/26 01:33:32;;;;;;;48.42;8.70;;;;;;;;;;5008319;28;20077;-66
2022/01/26 01:36:01;;;;;;;53.40;8.93;;;;;;;;;;5008245;28;20482;-66
2022/01/26 01:38:29;;;;;;;35.47;8.38;;;;;;;;;;5020477;28;20168;-66
2022/01/26 01:40:58;;;;;;;39.00;8.90;;;;;;;;;;5024161;28;20539;-67
2022/01/26 01:43:24;;;;;;;34.58;9.25;;;;;;;;;;5018455;28;20140;-66
2022/01/26 01:45:52;;;;;;;45.70;9.82;;;;;;;;;;5020109;28;20065;-67
2022/01/26 01:48:20;;;;;;;;;;;;;;;;;;5022387;28;20053;-66
2022/01/26 01:50:49;;;;;;;48.03;9.07;;;;;;;;;;5022743;28;19964;-66
2022/01/26 01:53:17;;;;;;;41.80;8.30;;;;;;;;;;5019522;28;20081;-67
2022/01/26 01:55:47;;;;;;;47.47;9.13;;;;;;;;;;5019784;28;20168;-66
2022/01/26 01:58:14;;;;;;;47.60;8.93;;;;;;;;;;5021576;28;20136;-66
2022/01/26 02:00:40;;;;;;;29.13;8.32;;;;;;;;;;5021501;28;20128;-66
2022/01/26 02:03:07;;;;;;;25.42;7.07;;;;;;;;;;5021725;28;20107;-66
2022/01/26 02:05:34;;;;;;;34.73;7.63;;;;;;;;;;5022597;28;20049;-66
2022/01/26 02:08:00;;;;;;;35.03;8.63;;;;;;;;;;5022048;28;20089;-67
2022/01/26 02:10:29;;;;;;;37.33;9.15;;;;;;;;;;5023883;28;20096;-66
2022/01/26 02:13:10;;;;;;;38.85;7.72;;;;;;;;;;5024075;28;20060;-66
2022/01/26 02:15:45;;;;;;;39.80;7.55;;;;;;;;;;5023211;28;20049;-66
2022/01/26 02:18:29;;;;;;;46.35;8.80;;;;;;;;;;5029760;28;20046;-66
2022/01/26 02:21:19;;;;;;;39.30;7.43;;;;;;;;;;5022545;28;20441;-66
2022/01/26 02:49:35;;;;;;;43.40;6.50;;;;;;;;;;5044629;28;20539;-66
2022/01/26 02:54:51;;;;;;;34.85;7.72;;;;;;;;;;5041557;28;20140;-66
2022/01/26 03:02:59;;;;;;;36.85;7.13;;;;;;;;;;5040941;28;20056;-66
2022/01/26 03:05:32;;;;;;;46.65;8.38;;;;;;;;;;5040572;28;20083;-66
2022/01/26 03:08:04;;;;;;;42.90;8.52;;;;;;;;;;5045006;28;20063;-66
2022/01/26 03:10:46;;;;;;;47.20;8.05;;;;;;;;;;5044499;28;20813;-66
2022/01/26 03:13:24;;;;;;;46.03;8.18;;;;;;;;;;5039126;28;20556;-66
2022/01/26 03:15:59;;;;;;;51.30;8.82;;;;;;;;;;5040137;28;20073;-66
2022/01/26 03:18:50;;;;;;;55.63;10.07;;;;;;;;;;5042221;28;20672;-66
2022/01/26 03:21:20;;;;;;;46.83;9.13;;;;;;;;;;5045671;28;20136;-66
2022/01/26 03:32:44;;;;;;;59.55;11.25;;;;;;;;;;5044820;28;20052;-66
2022/01/26 03:34:57;;;;;;;51.50;10.73;;;;;;;;;;5044777;28;20132;-66
2022/01/26 03:37:29;;;;;;;52.40;9.38;;;;;;;;;;5043752;28;20083;-66
2022/01/26 03:39:55;;;;;;;49.83;11.07;;;;;;;;;;5043969;28;20159;-66
2022/01/26 03:42:22;;;;;;;49.70;10.82;;;;;;;;;;5040095;28;20063;-66
2022/01/26 03:44:48;;;;;;;44.92;8.00;;;;;;;;;;5043389;28;20135;-66
2022/01/26 03:47:15;;;;;;;44.10;10.52;;;;;;;;;;5046323;28;20492;-66
2022/01/26 03:49:41;;;;;;;54.65;9.73;;;;;;;;;;5042975;28;20443;-66
2022/01/26 03:52:09;;;;;;;62.90;10.98;;;;;;;;;;5041482;28;20088;-66
2022/01/26 03:54:37;;;;;;;43.33;9.02;;;;;;;;;;5040018;28;20112;-66
2022/01/26 03:57:03;;;;;;;34.83;7.82;;;;;;;;;;5030479;28;20080;-66
2022/01/26 03:59:30;;;;;;;46.90;8.70;;;;;;;;;;5039189;28;20193;-66
2022/01/26 04:01:57;;;;;;;56.67;11.10;;;;;;;;;;5043807;28;20056;-66
2022/01/26 04:04:24;;;;;;;66.22;11.10;;;;;;;;;;5023883;28;20087;-66
2022/01/26 04:06:51;;;;;;;51.67;11.15;;;;;;;;;;5041424;28;20045;-66
2022/01/26 04:09:19;;;;;;;67.55;12.05;;;;;;;;;;5045259;28;20132;-66
2022/01/26 04:11:49;;;;;;;45.50;9.20;;;;;;;;;;5042427;28;20069;-66
2022/01/26 04:14:18;;;;;;;48.25;11.25;;;;;;;;;;5043366;28;20159;-66
2022/01/26 04:16:47;;;;;;;52.60;12.63;;;;;;;;;;5042260;28;21566;-66
2022/01/26 04:19:13;;;;;;;52.72;9.95;;;;;;;;;;5045525;28;20141;-66
2022/01/26 04:24:35;;;;;;;60.50;11.05;;;;;;;;;;5043972;28;20618;-66
2022/01/26 04:27:16;;;;;;;67.93;12.20;;;;;;;;;;5041411;28;20128;-66
2022/01/26 04:29:43;;;;;;;67.82;11.05;;;;;;;;;;5043029;28;20051;-66
2022/01/26 04:32:13;;;;;;;58.42;10.50;;;;;;;;;;5042107;28;20135;-66
2022/01/26 04:34:39;;;;;;;75.15;11.80;;;;;;;;;;5042710;28;20134;-66
2022/01/26 04:38:05;;;;;;;68.03;10.93;;;;;;;;;;5042247;28;20471;-66
2022/01/26 04:40:09;;;;;;;62.95;10.82;;;;;;;;;;5042714;28;20045;-66
2022/01/26 04:42:56;;;;;;;57.90;10.10;;;;;;;;;;5041336;28;20057;-66
2022/01/26 04:45:22;;;;;;;57.72;10.43;;;;;;;;;;5040691;28;20367;-66
2022/01/26 04:47:49;;;;;;;51.20;9.47;;;;;;;;;;5041054;28;20110;-66
2022/01/26 04:50:15;;;;;;;62.55;10.15;;;;;;;;;;5040955;28;20287;-66
2022/01/26 04:52:45;;;;;;;66.20;9.90;;;;;;;;;;5043188;28;20669;-66
2022/01/26 04:55:13;;;;;;;53.60;9.68;;;;;;;;;;5043801;28;20052;-66
2022/01/26 04:57:39;;;;;;;48.03;10.55;;;;;;;;;;5041401;28;20055;-66
2022/01/26 05:00:06;;;;;;;53.20;9.68;;;;;;;;;;5043032;28;22718;-66
2022/01/26 05:02:33;;;;;;;61.15;10.10;;;;;;;;;;5041183;28;20073;-66
2022/01/26 05:05:00;;;;;;;43.05;9.18;;;;;;;;;;5044457;28;20049;-66
2022/01/26 05:07:27;;;;;;;50.05;10.32;;;;;;;;;;5042066;28;20133;-66
2022/01/26 05:09:54;;;;;;;;;;;;;;;;;;5044422;28;20061;-66
2022/01/26 05:12:21;;;;;;;60.72;10.32;;;;;;;;;;5042544;28;20035;-66
2022/01/26 05:14:48;;;;;;;53.72;10.55;;;;;;;;;;5041946;28;20149;-66
2022/01/26 05:17:19;;;;;;;44.28;9.55;;;;;;;;;;5043686;28;20153;-66
2022/01/26 05:19:46;;;;;;;50.75;9.25;;;;;;;;;;5041541;28;20144;-66
2022/01/26 05:22:13;;;;;;;66.60;11.52;;;;;;;;;;5039642;28;20833;-66
2022/01/26 05:24:47;;;;;;;51.40;8.13;;;;;;;;;;5044028;28;20053;-66
2022/01/26 05:27:14;;;;;;;45.65;8.48;;;;;;;;;;5038995;28;20132;-66
2022/01/26 05:29:40;;;;;;;66.55;12.32;;;;;;;;;;5041633;28;20045;-66
2022/01/26 05:32:09;;;;;;;61.20;11.02;;;;;;;;;;5043272;28;20470;-66
2022/01/26 05:34:36;;;;;;;58.73;12.07;;;;;;;;;;5041058;28;20125;-66
2022/01/26 05:37:02;;;;;;;78.65;12.13;;;;;;;;;;5039102;28;20761;-66
2022/01/26 05:39:31;;;;;;;57.10;11.80;;;;;;;;;;5044647;28;20159;-66
2022/01/26 05:41:58;;;;;;;67.75;9.50;;;;;;;;;;5046114;28;20403;-66
2022/01/26 05:44:24;;;;;;;59.53;12.35;;;;;;;;;;5042892;28;20077;-66
2022/01/26 05:46:50;;;;;;;62.92;11.00;;;;;;;;;;5045357;28;20079;-66
2022/01/26 05:49:18;;;;;;;58.05;12.45;;;;;;;;;;5045580;28;20511;-66
2022/01/26 05:51:47;;;;;;;69.00;12.20;;;;;;;;;;5045255;28;20135;-66
2022/01/26 05:54:15;;;;;;;67.90;11.32;;;;;;;;;;5045084;28;20049;-66
2022/01/26 05:56:46;;;;;;;64.03;12.20;;;;;;;;;;5045096;28;20483;-66
2022/01/26 05:59:17;;;;;;;61.47;11.35;;;;;;;;;;5041846;28;20272;-66
2022/01/26 06:01:49;;;;;;;59.70;10.73;;;;;;;;;;5044309;28;20362;-66
2022/01/26 06:04:16;;;;;;;64.17;12.70;;;;;;;;;;5044420;28;20064;-66
2022/01/26 06:06:43;;;;;;;70.87;12.07;;;;;;;;;;5042618;28;20386;-66
2022/01/26 06:09:17;;;;;;;64.05;10.57;;;;;;;;;;5044674;28;20319;-66
2022/01/26 06:11:43;;;;;;;58.83;10.90;;;;;;;;;;5045474;28;20049;-66
2022/01/26 06:14:09;;;;;;;55.50;11.90;;;;;;;;;;5043945;28;20081;-66
2022/01/26 06:16:36;;;;;;;59.10;9.98;;;;;;;;;;5044426;28;20040;-66
2022/01/26 06:19:03;;;;;;;39.97;7.20;;;;;;;;;;5028465;28;20053;-66
2022/01/26 06:21:29;;;;;;;40.67;9.32;;;;;;;;;;5044554;28;20414;-66
2022/01/26 06:23:57;;;;;;;55.17;9.95;;;;;;;;;;5046735;28;20073;-66
2022/01/26 06:26:23;;;;;;;51.67;9.85;;;;;;;;;;5038961;28;20055;-66
2022/01/26 06:28:50;;;;;;;46.47;9.45;;;;;;;;;;5042270;28;20144;-66
2022/01/26 06:31:28;;;;;;;56.33;10.10;;;;;;;;;;5041238;28;20044;-65
2022/01/26 06:33:55;;;;;;;;;;;;;;;;;;5046055;28;20063;-66
2022/01/26 06:36:21;;;;;;;48.67;9.63;;;;;;;;;;5042870;28;20398;-66
2022/01/26 06:38:55;;;;;;;53.10;9.38;;;;;;;;;;5043384;28;20566;-66
2022/01/26 06:41:26;;;;;;;59.42;8.95;;;;;;;;;;5039174;28;20136;-66
2022/01/26 06:44:03;;;;;;;44.05;7.53;;;;;;;;;;5048764;28;20056;-66
2022/01/26 06:46:47;;;;;;;42.00;8.00;;;;;;;;;;5047531;28;20148;-65
2022/01/26 06:51:46;;;;;;;37.25;8.65;;;;;;;;;;5043178;28;20132;-65
2022/01/26 06:54:13;;;;;;;40.83;7.50;;;;;;;;;;5047684;28;20501;-66
2022/01/26 06:56:39;;;;;;;39.67;8.90;;;;;;;;;;5044006;28;20515;-65
2022/01/26 06:59:06;;;;;;;53.08;9.32;;;;;;;;;;5041893;28;20480;-66
2022/01/26 07:01:32;;;;;;;45.22;8.65;;;;;;;;;;5042532;28;20133;-65
2022/01/26 07:03:59;;;;;;;43.22;8.27;;;;;;;;;;5028895;28;20065;-66
2022/01/26 07:06:25;;;;;;;39.65;8.38;;;;;;;;;;5045650;28;20128;-66
2022/01/26 07:08:52;;;;;;;41.30;7.72;;;;;;;;;;5046555;28;20081;-65
2022/01/26 07:11:24;;;;;;;36.25;8.55;;;;;;;;;;5043479;28;20468;-66
2022/01/26 07:13:57;;;;;;;44.92;9.35;;;;;;;;;;5043512;28;20626;-65
2022/01/26 07:21:54;;;;;;;51.92;9.07;;;;;;;;;;5037389;28;20045;-66
2022/01/26 07:24:21;;;;;;;46.03;8.73;;;;;;;;;;5046397;28;20049;-65
2022/01/26 07:26:52;;;;;;;49.42;10.05;;;;;;;;;;5045996;28;20045;-65
2022/01/26 07:29:25;;;;;;;48.85;8.82;;;;;;;;;;5045899;28;20487;-65
2022/01/26 07:31:57;;;;;;;56.25;10.20;;;;;;;;;;5043493;28;20063;-65
2022/01/26 07:34:24;;;;;;;52.83;9.80;;;;;;;;;;5045748;28;20048;-65
2022/01/26 07:36:54;;;;;;;59.72;9.18;;;;;;;;;;5045941;28;20488;-65
2022/01/26 07:39:31;;;;;;;49.75;9.00;;;;;;;;;;5045488;28;20049;-66
2022/01/26 07:41:59;;;;;;;41.88;7.68;;;;;;;;;;5040387;28;20123;-65
2022/01/26 07:44:26;;;;;;;43.92;8.30;;;;;;;;;;5043068;28;20464;-65
2022/01/26 07:46:53;;;;;;;46.83;7.82;;;;;;;;;;5045039;28;20053;-65
2022/01/26 07:49:19;;;;;;;47.30;8.90;;;;;;;;;;5042799;28;20037;-66
2022/01/26 07:51:49;;;;;;;44.58;8.30;;;;;;;;;;5042506;28;20127;-65
2022/01/26 07:54:16;;;;;;;34.20;7.90;;;;;;;;;;5043183;28;20071;-65
2022/01/26 07:56:44;;;;;;;38.78;7.97;;;;;;;;;;5039757;28;20480;-66
2022/01/26 07:59:10;;;;;;;;;;;;;;;;;;5042557;28;20140;-65
2022/01/26 08:01:37;;;;;;;36.90;7.32;;;;;;;;;;5041421;28;19975;-65
2022/01/26 08:04:07;;;;;;;45.03;8.60;;;;;;;;;;5041738;28;20053;-65
2022/01/26 08:06:37;;;;;;;35.22;6.65;;;;;;;;;;5041837;28;20053;-65
2022/01/26 08:09:04;;;;;;;31.50;7.22;;;;;;;;;;5042652;28;20049;-66
2022/01/26 08:11:30;;;;;;;41.17;7.78;;;;;;;;;;5044209;28;20074;-65
2022/01/26 08:14:04;;;;;;;42.67;8.30;;;;;;;;;;5041726;28;20060;-65
2022/01/26 08:16:30;;;;;;;30.35;5.55;;;;;;;;;;5044087;28;20131;-65
2022/01/26 08:18:57;;;;;;;53.33;8.38;;;;;;;;;;5040056;28;20068;-65
2022/01/26 08:21:24;;;;;;;;;;;;;;;;;;5049135;28;20076;-65
2022/01/26 08:23:50;;;;;;;44.22;8.27;;;;;;;;;;5045130;28;19971;-65
2022/01/26 08:26:31;;;;;;;25.45;5.80;;;;;;;;;;5039799;28;20049;-65
2022/01/26 08:28:57;;;;;;;40.38;6.95;;;;;;;;;;5040175;28;20131;-65
2022/01/26 08:31:27;;;;;;;34.72;6.80;;;;;;;;;;5040173;28;20056;-65
2022/01/26 08:33:54;;;;;;;42.80;7.15;;;;;;;;;;5043641;28;20037;-65
2022/01/26 08:36:27;;;;;;;46.13;9.32;;;;;;;;;;5041996;28;20143;-65
2022/01/26 08:38:54;;;;;;;42.90;8.15;;;;;;;;;;5041888;28;20049;-65
2022/01/26 08:41:20;;;;;;;30.20;6.03;;;;;;;;;;5041166;28;20135;-65
2022/01/26 08:43:47;;;;;;;40.65;9.23;;;;;;;;;;5040012;28;20061;-65
2022/01/26 08:46:14;;;;;;;38.70;7.38;;;;;;;;;;5043593;28;20055;-65
2022/01/26 08:48:40;;;;;;;41.42;6.95;;;;;;;;;;5041708;28;20053;-65
2022/01/26 08:51:07;;;;;;;41.38;6.45;;;;;;;;;;5043312;28;20432;-65
2022/01/26 08:53:33;;;;;;;33.60;7.90;;;;;;;;;;5042175;28;20769;-65
2022/01/26 08:56:00;;;;;;;43.55;7.25;;;;;;;;;;5042184;28;20136;-65
2022/01/26 08:58:27;;;;;;;39.00;6.20;;;;;;;;;;5037144;28;20540;-65
2022/01/26 09:00:54;;;;;;;48.47;7.70;;;;;;;;;;5038521;28;20140;-65
2022/01/26 09:03:21;;;;;;;42.78;7.30;;;;;;;;;;5041232;28;20056;-65
2022/01/26 09:05:49;;;;;;;;;;;;;;;;;;5041357;28;20053;-65
2022/01/26 09:08:17;;;;;;;44.05;6.28;;;;;;;;;;5044607;28;19924;-65
2022/01/26 09:10:43;;;;;;;45.00;7.78;;;;;;;;;;5040963;28;20124;-65
2022/01/26 09:13:11;;;;;;;42.15;7.18;;;;;;;;;;5036940;28;20140;-65
2022/01/26 09:15:39;;;;;;;44.63;7.17;;;;;;;;;;5049602;28;20124;-65
2022/01/26 09:18:07;;;;;;;43.28;6.85;;;;;;;;;;5041470;28;20335;-65
2022/01/26 09:20:36;;;;;;;41.08;6.43;;;;;;;;;;5043627;28;20131;-65
2022/01/26 09:23:03;;;;;;;46.25;7.10;;;;;;;;;;5041245;28;20081;-65
2022/01/26 09:25:33;;;;;;;36.85;6.55;;;;;;;;;;5041978;28;20584;-65
2022/01/26 09:28:07;;;;;;;60.80;9.15;;;;;;;;;;5046196;28;20536;-65
2022/01/26 09:30:33;;;;;;;37.70;6.97;;;;;;;;;;5043111;28;20058;-65
2022/01/26 09:32:59;;;;;;;50.15;6.95;;;;;;;;;;5044620;28;20148;-64
2022/01/26 09:35:26;;;;;;;56.20;8.30;;;;;;;;;;5046027;28;20080;-64
2022/01/26 09:37:53;;;;;;;45.58;7.75;;;;;;;;;;5045110;28;20077;-64
2022/01/26 09:40:19;;;;;;;49.00;7.10;;;;;;;;;;5044799;28;20060;-64
2022/01/26 09:42:46;;;;;;;39.67;6.93;;;;;;;;;;5043550;28;20523;-64
2022/01/26 09:45:13;;;;;;;43.80;7.10;;;;;;;;;;5044675;28;20131;-63
2022/01/26 09:47:40;;;;;;;39.40;6.43;;;;;;;;;;5045462;28;20145;-64
2022/01/26 09:50:27;;;;;;;42.95;6.93;;;;;;;;;;5042887;28;20054;-64
2022/01/26 09:52:55;;;;;;;40.20;6.15;;;;;;;;;;5043565;28;20089;-64
2022/01/26 09:55:28;;;;;;;40.08;6.05;;;;;;;;;;5044515;28;20128;-63
2022/01/26 09:57:58;;;;;;;38.60;5.90;;;;;;;;;;5044722;28;20049;-64
2022/01/26 10:00:25;;;;;;;44.40;6.90;;;;;;;;;;5041544;28;20451;-64
2022/01/26 10:02:55;;;;;;;44.80;7.78;;;;;;;;;;5044111;28;20071;-63
2022/01/26 10:05:22;;;;;;;;;;;;;;;;;;5046898;28;20459;-63
2022/01/26 10:07:52;;;;;;;38.63;5.82;;;;;;;;;;5044074;28;19966;-64
2022/01/26 10:15:28;;;;;;;32.65;5.82;;;;;;;;;;5038371;28;20056;-63
2022/01/26 10:17:23;;;;;;;32.42;5.68;;;;;;;;;;5031136;28;20163;-64
2022/01/26 10:19:08;;;;;;;42.65;6.00;;;;;;;;;;5021590;28;20128;-63
2022/01/26 10:21:48;;;;;;;33.97;5.53;;;;;;;;;;5018567;28;20126;-63
2022/01/26 10:24:15;;;;;;;37.17;6.97;;;;;;;;;;5034100;28;20111;-63
2022/01/26 10:26:46;;;;;;;37.85;6.35;;;;;;;;;;5038447;28;20563;-63
2022/01/26 10:29:15;;;;;;;24.58;4.82;;;;;;;;;;5035478;28;20049;-63
2022/01/26 10:31:42;;;;;;;42.63;7.15;;;;;;;;;;5034872;28;20045;-63
2022/01/26 10:34:10;;;;;;;42.23;6.10;;;;;;;;;;5042133;28;20059;-63
2022/01/26 10:36:36;;;;;;;34.40;5.68;;;;;;;;;;5043698;28;20377;-63
2022/01/26 10:39:06;;;;;;;44.50;6.53;;;;;;;;;;5032659;28;20060;-63
2022/01/26 10:41:34;;;;;;;35.83;6.18;;;;;;;;;;5030148;28;20049;-64
2022/01/26 10:44:02;;;;;;;31.27;5.20;;;;;;;;;;5023538;28;20053;-63
2022/01/26 10:46:35;;;;;;;27.73;4.60;;;;;;;;;;5016363;28;20057;-63
2022/01/26 10:49:13;;;;;;;28.70;5.22;;;;;;;;;;5016846;28;21703;-63
2022/01/26 10:54:45;;;;;;;25.77;4.88;;;;;;;;;;5011351;28;20141;-63
2022/01/26 10:57:19;;;;;;;24.05;4.85;;;;;;;;;;5013527;28;20389;-63
2022/01/26 10:59:47;;;;;;;19.88;3.22;;;;;;;;;;5011562;28;20140;-63
2022/01/26 11:02:13;;;;;;;;;;;;;;;;;;5016958;28;20049;-63
2022/01/26 11:04:41;;;;;;;20.20;3.67;;;;;;;;;;5019328;28;19925;-63
2022/01/26 11:07:08;;;;;;;;;;;;;;;;;;5017012;28;20053;-63
2022/01/26 11:09:36;;;;;;;18.92;3.65;;;;;;;;;;5010210;28;19921;-63
2022/01/26 11:12:10;;;;;;;19.23;3.40;;;;;;;;;;5012353;28;20050;-63
2022/01/26 11:14:36;;;;;;;;;;;;;;;;;;5010864;28;20107;-63
2022/01/26 11:17:02;;;;;;;19.88;4.53;;;;;;;;;;5016330;28;19969;-63
2022/01/26 11:19:38;;;;;;;17.37;2.87;;;;;;;;;;5023986;28;20096;-63
2022/01/26 11:22:05;;;;;;;15.63;3.05;;;;;;;;;;5021568;28;20785;-63
2022/01/26 11:24:50;;;;;;;10.65;2.40;;;;;;;;;;5009304;28;20085;-63
2022/01/26 11:27:17;;;;;;;14.02;2.38;;;;;;;;;;5020653;28;20498;-63
2022/01/26 11:29:54;;;;;;;14.98;2.60;;;;;;;;;;5017843;28;20094;-63
2022/01/26 11:32:30;;;;;;;18.80;3.17;;;;;;;;;;5022774;28;20050;-63
2022/01/26 11:34:58;;;;;;;21.27;3.20;;;;;;;;;;5018855;28;20076;-63
2022/01/26 11:37:37;;;;;;;12.15;3.05;;;;;;;;;;5021098;28;20095;-63
2022/01/26 11:45:34;;;;;;;18.85;3.03;;;;;;;;;;5043970;28;20056;-63
2022/01/26 11:48:07;;;;;;;14.60;2.60;;;;;;;;;;5042942;28;20095;-63
2022/01/26 11:50:35;;;;;;;14.23;2.63;;;;;;;;;;5042098;28;20049;-63
2022/01/26 11:53:01;;;;;;;;;;;;;;;;;;5043384;28;20148;-63
2022/01/26 11:55:33;;;;;;;18.77;3.20;;;;;;;;;;5044514;28;20281;-63
2022/01/26 11:58:09;;;;;;;16.02;2.80;;;;;;;;;;5041974;28;20072;-63
2022/01/26 12:00:41;;;;;;;13.93;2.80;;;;;;;;;;5041525;28;20523;-64
2022/01/26 12:03:19;;;;;;;15.70;3.00;;;;;;;;;;5042236;28;20048;-63
2022/01/26 12:05:46;;;;;;;14.38;2.67;;;;;;;;;;5043628;28;20518;-63
2022/01/26 12:08:13;;;;;;;;;;;;;;;;;;5041714;28;20128;-63
2022/01/26 12:10:42;;;;;;;20.88;3.78;;;;;;;;;;5041910;28;19983;-63
2022/01/26 12:13:10;;;;;;;13.43;3.05;;;;;;;;;;5037584;28;20129;-63
2022/01/26 12:15:45;;;;;;;20.08;3.67;;;;;;;;;;5040676;28;20073;-63
2022/01/26 12:43:14;;;;;;;20.70;3.60;;;;;;;;;;5028963;28;20585;-63
2022/01/26 12:45:55;;;;;;;17.05;3.60;;;;;;;;;;5020163;28;20136;-63
2022/01/26 12:48:26;;;;;;;18.63;3.75;;;;;;;;;;5021411;28;20103;-63
2022/01/26 12:50:53;;;;;;;20.45;3.65;;;;;;;;;;5018980;28;20141;-63
2022/01/26 12:53:23;;;;;;;17.08;3.05;;;;;;;;;;5022538;28;20077;-63
2022/01/26 12:55:55;;;;;;;20.63;3.88;;;;;;;;;;5022261;28;20136;-63
2022/01/26 12:58:29;;;;;;;19.98;4.05;;;;;;;;;;5021441;28;20141;-63
2022/01/26 13:01:00;;;;;;;18.75;3.60;;;;;;;;;;5023002;28;20041;-63
2022/01/26 13:03:30;;;;;;;17.02;3.50;;;;;;;;;;5023283;28;20099;-63
2022/01/26 13:06:04;;;;;;;20.02;3.33;;;;;;;;;;5021824;28;20041;-63
2022/01/26 13:08:44;;;;;;;18.27;3.72;;;;;;;;;;5023537;28;20128;-63
2022/01/26 13:11:21;;;;;;;17.13;3.85;;;;;;;;;;5020541;28;20929;-63
2022/01/26 13:13:47;;;;;;;20.58;3.33;;;;;;;;;;5018580;28;20046;-63
2022/01/26 13:16:15;;;;;;;25.90;3.60;;;;;;;;;;5018331;28;20133;-63
2022/01/26 13:19:14;;;;;;;19.83;3.65;;;;;;;;;;5023274;28;20053;-63
2022/01/26 13:27:15;;;;;;;17.08;3.28;;;;;;;;;;5019590;28;20050;-63
2022/01/26 13:29:58;;;;;;;20.83;4.40;;;;;;;;;;5017988;28;20045;-63
2022/01/26 13:33:06;;;;;;;21.83;4.20;;;;;;;;;;5020463;28;20084;-63
2022/01/26 13:35:41;;;;;;;24.88;3.70;;;;;;;;;;5017694;28;20134;-63
2022/01/26 13:38:23;;;;;;;22.15;4.00;;;;;;;;;;5019659;28;20132;-63
2022/01/26 13:41:02;;;;;;;20.15;4.03;;;;;;;;;;5018234;28;20125;-63
2022/01/26 13:52:06;;;;;;;27.15;4.28;;;;;;;;;;4998713;28;20077;-63
2022/01/26 14:00:08;;;;;;;27.23;3.90;;;;;;;;;;5024919;28;20103;-63
2022/01/26 14:02:38;;;;;;;20.10;3.78;;;;;;;;;;5026052;28;20132;-63
2022/01/26 14:05:05;;;;;;;18.33;3.80;;;;;;;;;;5019445;28;20088;-63
2022/01/26 14:07:32;;;;;;;26.42;4.47;;;;;;;;;;5024050;28;20132;-63
2022/01/26 14:10:03;;;;;;;23.92;4.88;;;;;;;;;;5024027;28;20056;-63
2022/01/26 14:12:35;;;;;;;27.73;4.68;;;;;;;;;;5024149;28;20120;-63
2022/01/26 14:15:06;;;;;;;19.48;3.22;;;;;;;;;;5025726;28;20125;-63
2022/01/26 14:17:54;;;;;;;28.52;4.60;;;;;;;;;;5024576;28;20080;-63
2022/01/26 14:25:28;;;;;;;36.83;5.15;;;;;;;;;;5025296;28;20140;-63
2022/01/26 14:28:00;;;;;;;28.35;5.05;;;;;;;;;;5024266;28;20049;-63
2022/01/26 14:35:45;;;;;;;33.70;5.15;;;;;;;;;;5026148;28;20152;-63
2022/01/26 14:54:24;;;;;;;29.33;4.97;;;;;;;;;;5024595;28;20136;-62
2022/01/26 16:06:04;;;;;;;35.28;5.88;;;;;;;;;;5033329;28;20134;-63
2022/01/26 16:12:40;;;;;;;46.22;7.10;;;;;;;;;;5029230;28;20084;-63
2022/01/26 16:17:49;;;;;;;32.28;5.15;;;;;;;;;;5034129;28;20132;-63
2022/01/26 16:20:24;;;;;;;40.22;6.25;;;;;;;;;;5029715;28;20049;-63
2022/01/26 18:51:30;;;;;;;42.58;6.07;;;;;;;;;;5024595;28;20050;-63
2022/01/26 18:53:57;;;;;;;36.90;6.10;;;;;;;;;;5025318;28;20101;-63
2022/01/26 18:56:24;;;;;;;32.90;5.22;;;;;;;;;;5021638;28;20049;-63
2022/01/26 18:58:51;;;;;;;41.55;6.93;;;;;;;;;;5021312;28;20527;-63
2022/01/26 19:01:17;;;;;;;41.38;5.93;;;;;;;;;;5022507;28;20862;-63
2022/01/26 19:04:11;;;;;;;46.78;6.32;;;;;;;;;;5022797;28;20064;-63
2022/01/26 19:06:40;;;;;;;52.17;8.05;;;;;;;;;;5019197;28;20069;-63
2022/01/26 19:09:13;;;;;;;56.45;7.53;;;;;;;;;;5020861;28;20059;-63
2022/01/26 19:11:40;;;;;;;55.40;8.27;;;;;;;;;;5023290;28;20528;-63
2022/01/26 19:14:06;;;;;;;62.60;8.53;;;;;;;;;;5021309;28;20059;-63
2022/01/26 19:16:45;;;;;;;66.72;8.00;;;;;;;;;;5021598;28;20466;-63
2022/01/26 19:26:58;;;;;;;71.60;11.02;;;;;;;;;;4989334;28;20049;-63
2022/01/26 19:50:58;;;;;;;52.95;7.72;;;;;;;;;;5022380;28;20081;-63
2022/01/26 19:53:26;;;;;;;61.38;8.32;;;;;;;;;;5020016;28;20387;-63
2022/01/26 19:55:53;;;;;;;56.60;7.32;;;;;;;;;;5023577;28;20761;-63
2022/01/26 19:58:19;;;;;;;57.88;7.82;;;;;;;;;;5021641;28;20052;-63
2022/01/26 20:00:53;;;;;;;43.38;6.68;;;;;;;;;;5021462;28;20050;-63
2022/01/26 20:03:21;;;;;;;53.03;8.63;;;;;;;;;;5023194;28;20080;-63
2022/01/26 20:05:50;;;;;;;38.72;6.85;;;;;;;;;;5019242;28;20437;-63
2022/01/26 20:08:42;;;;;;;53.70;7.22;;;;;;;;;;5020556;28;20414;-63
2022/01/26 20:11:14;;;;;;;51.15;6.47;;;;;;;;;;5022292;28;20049;-63
2022/01/26 20:13:42;;;;;;;39.72;7.03;;;;;;;;;;5022266;28;20144;-63
2022/01/26 20:16:10;;;;;;;47.58;7.07;;;;;;;;;;5023411;28;20052;-63
2022/01/26 20:18:36;;;;;;;;;;;;;;;;;;5022487;28;20056;-63
2022/01/26 20:21:04;;;;;;;50.00;6.55;;;;;;;;;;5021091;28;19927;-63
2022/01/26 20:23:36;;;;;;;47.60;6.88;;;;;;;;;;5008697;28;20600;-63
2022/01/26 20:26:03;;;;;;;42.22;6.38;;;;;;;;;;5018844;28;20050;-63
2022/01/26 20:28:33;;;;;;;49.75;6.82;;;;;;;;;;5018714;28;20049;-63
2022/01/26 20:31:01;;;;;;;53.40;8.98;;;;;;;;;;5024916;28;20139;-63
2022/01/26 20:33:27;;;;;;;49.47;6.78;;;;;;;;;;5018882;28;20049;-63
2022/01/26 20:35:55;;;;;;;59.30;8.02;;;;;;;;;;5022208;28;20049;-63
2022/01/26 20:38:21;;;;;;;52.60;7.85;;;;;;;;;;5022607;28;20501;-63
2022/01/26 20:40:48;;;;;;;52.45;7.50;;;;;;;;;;5020012;28;20141;-63
2022/01/26 20:43:15;;;;;;;40.88;6.85;;;;;;;;;;5022132;28;20057;-63
2022/01/26 20:45:44;;;;;;;57.08;7.07;;;;;;;;;;5021448;28;20140;-63
2022/01/26 20:48:10;;;;;;;60.60;7.07;;;;;;;;;;5021386;28;20112;-63
2022/01/26 20:50:37;;;;;;;64.15;7.70;;;;;;;;;;5017345;28;20050;-63
2022/01/26 20:53:03;;;;;;;51.95;6.57;;;;;;;;;;5018860;28;20556;-63
2022/01/26 20:55:30;;;;;;;62.55;8.35;;;;;;;;;;5019348;28;20744;-63
2022/01/26 20:58:03;;;;;;;44.75;6.72;;;;;;;;;;5021427;28;20046;-63
2022/01/26 21:00:49;;;;;;;56.20;6.90;;;;;;;;;;5021161;28;20056;-63
2022/01/26 21:03:18;;;;;;;66.22;8.35;;;;;;;;;;5019441;28;20062;-63
2022/01/26 21:05:44;;;;;;;47.20;6.78;;;;;;;;;;5022017;28;20068;-63
2022/01/26 21:08:11;;;;;;;39.97;6.03;;;;;;;;;;5022397;28;20088;-63
2022/01/26 21:10:37;;;;;;;62.10;6.53;;;;;;;;;;5022662;28;20053;-63
2022/01/26 21:13:23;;;;;;;54.13;8.07;;;;;;;;;;5026876;28;20049;-63
2022/01/26 21:15:50;;;;;;;50.00;6.47;;;;;;;;;;5023317;28;20115;-63
2022/01/26 21:18:18;;;;;;;45.90;6.50;;;;;;;;;;5025592;28;20041;-63
2022/01/26 21:20:45;;;;;;;56.20;6.85;;;;;;;;;;5023124;28;20439;-63
2022/01/26 21:23:19;;;;;;;57.22;6.43;;;;;;;;;;5021258;28;20081;-63
2022/01/26 21:25:45;;;;;;;42.47;7.50;;;;;;;;;;5019612;28;20077;-63
2022/01/26 21:28:12;;;;;;;48.97;6.13;;;;;;;;;;5025727;28;20465;-63
2022/01/26 21:30:38;;;;;;;45.65;6.75;;;;;;;;;;5024727;28;20045;-63
2022/01/26 21:33:05;;;;;;;45.08;7.35;;;;;;;;;;5024912;28;20077;-63
2022/01/26 21:35:31;;;;;;;33.30;5.13;;;;;;;;;;5028212;28;20061;-63
2022/01/26 21:37:58;;;;;;;37.92;5.68;;;;;;;;;;5020679;28;20141;-63
2022/01/26 21:40:25;;;;;;;41.53;6.38;;;;;;;;;;5025994;28;20049;-63
2022/01/26 21:42:51;;;;;;;42.22;6.22;;;;;;;;;;5021306;28;20572;-63
2022/01/26 21:45:20;;;;;;;45.27;6.03;;;;;;;;;;5024287;28;20060;-63